Yreka, California
Current Conditions -  °F | °C
As of 11:53 PM on Wednesday 17 Dec 2014 (Local Time) from KSIY Reporting Station
Overcast Overcast  
Wind Chill: 35°   Ceiling: 5500
Heat Index: 40°   Visibility: 10mi
Dew Point: 39°   Wind: 7mph
Humidity: 97%   Direction: 30°NNE
Pressure: 30.01"   Gusts: NA
Location:  41.73°N, 122.63°W
Report Text: KSIY 180753Z AUTO 03006KT 10SM OVC055 04/04 A3001 RMK AO2 RAE53 SLP179 P0000 T00440039 400890000
Loading
Personal Weather Stations






























Interactive Weather Map New forecast layout! Learn more

10-Day Weather Forecast

Advertisements
Track Severe Weather on mobile